sensor_id;sensor_type;location;lat;lon;timestamp;pressure;altitude;pressure_sealevel;temperature
19948;BMP180;10135;50.702;7.276;2023-05-07T05:30:34;99452.00;;;18.30
19948;BMP180;10135;50.702;7.276;2023-05-07T05:32:35;99447.00;;;18.40
19948;BMP180;10135;50.702;7.276;2023-05-07T05:34:36;99451.00;;;18.40
19948;BMP180;10135;50.702;7.276;2023-05-07T05:36:36;99457.00;;;18.50
19948;BMP180;10135;50.702;7.276;2023-05-07T05:38:37;99455.00;;;18.50
19948;BMP180;10135;50.702;7.276;2023-05-07T05:40:38;99456.00;;;18.60
19948;BMP180;10135;50.702;7.276;2023-05-07T05:42:39;99452.00;;;18.60
19948;BMP180;10135;50.702;7.276;2023-05-07T05:44:39;99450.00;;;18.70
19948;BMP180;10135;50.702;7.276;2023-05-07T05:46:40;99450.00;;;18.70
19948;BMP180;10135;50.702;7.276;2023-05-07T05:48:41;99452.00;;;18.80
19948;BMP180;10135;50.702;7.276;2023-05-07T05:50:42;99455.00;;;18.80
19948;BMP180;10135;50.702;7.276;2023-05-07T05:52:43;99452.00;;;18.90
19948;BMP180;10135;50.702;7.276;2023-05-07T05:54:43;99449.00;;;19.00
19948;BMP180;10135;50.702;7.276;2023-05-07T05:56:44;99452.00;;;19.00
19948;BMP180;10135;50.702;7.276;2023-05-07T05:58:45;99454.00;;;19.10
19948;BMP180;10135;50.702;7.276;2023-05-07T06:00:46;99451.00;;;19.10
19948;BMP180;10135;50.702;7.276;2023-05-07T06:02:48;99452.00;;;19.20
19948;BMP180;10135;50.702;7.276;2023-05-07T06:04:49;99451.00;;;19.20
19948;BMP180;10135;50.702;7.276;2023-05-07T06:06:50;99442.00;;;19.30
19948;BMP180;10135;50.702;7.276;2023-05-07T06:08:51;99446.00;;;19.40
19948;BMP180;10135;50.702;7.276;2023-05-07T06:10:51;99438.00;;;19.40
19948;BMP180;10135;50.702;7.276;2023-05-07T06:12:52;99446.00;;;19.60
19948;BMP180;10135;50.702;7.276;2023-05-07T06:14:53;99442.00;;;19.70
19948;BMP180;10135;50.702;7.276;2023-05-07T06:16:53;99446.00;;;19.80
19948;BMP180;10135;50.702;7.276;2023-05-07T06:18:54;99446.00;;;19.90
19948;BMP180;10135;50.702;7.276;2023-05-07T06:20:55;99445.00;;;20.00
19948;BMP180;10135;50.702;7.276;2023-05-07T06:22:55;99439.00;;;20.10
19948;BMP180;10135;50.702;7.276;2023-05-07T06:24:56;99445.00;;;20.10
19948;BMP180;10135;50.702;7.276;2023-05-07T06:26:57;99446.00;;;20.20
19948;BMP180;10135;50.702;7.276;2023-05-07T06:28:58;99450.00;;;20.30
19948;BMP180;10135;50.702;7.276;2023-05-07T06:31:12;99453.00;;;20.30
19948;BMP180;10135;50.702;7.276;2023-05-07T06:33:13;99454.00;;;20.40
19948;BMP180;10135;50.702;7.276;2023-05-07T06:35:13;99461.00;;;20.40
19948;BMP180;10135;50.702;7.276;2023-05-07T06:37:14;99466.00;;;20.50
19948;BMP180;10135;50.702;7.276;2023-05-07T06:39:15;99477.00;;;20.50
19948;BMP180;10135;50.702;7.276;2023-05-07T06:41:15;99468.00;;;20.60
19948;BMP180;10135;50.702;7.276;2023-05-07T06:43:16;99479.00;;;20.60
19948;BMP180;10135;50.702;7.276;2023-05-07T06:45:17;99476.00;;;20.60
19948;BMP180;10135;50.702;7.276;2023-05-07T06:47:17;99478.00;;;20.70
19948;BMP180;10135;50.702;7.276;2023-05-07T06:49:18;99476.00;;;20.70
19948;BMP180;10135;50.702;7.276;2023-05-07T06:51:18;99481.00;;;20.70
19948;BMP180;10135;50.702;7.276;2023-05-07T06:53:20;99483.00;;;20.80
19948;BMP180;10135;50.702;7.276;2023-05-07T06:55:20;99483.00;;;20.80
19948;BMP180;10135;50.702;7.276;2023-05-07T06:57:21;99485.00;;;20.80
19948;BMP180;10135;50.702;7.276;2023-05-07T06:59:21;99483.00;;;20.80
19948;BMP180;10135;50.702;7.276;2023-05-07T07:01:22;99483.00;;;20.80
19948;BMP180;10135;50.702;7.276;2023-05-07T07:03:23;99486.00;;;20.90
19948;BMP180;10135;50.702;7.276;2023-05-07T07:05:24;99482.00;;;20.90
19948;BMP180;10135;50.702;7.276;2023-05-07T07:07:24;99489.00;;;20.90
19948;BMP180;10135;50.702;7.276;2023-05-07T07:09:25;99488.00;;;20.90
19948;BMP180;10135;50.702;7.276;2023-05-07T07:11:26;99477.00;;;20.90
19948;BMP180;10135;50.702;7.276;2023-05-07T07:13:26;99482.00;;;20.90
19948;BMP180;10135;50.702;7.276;2023-05-07T07:15:27;99479.00;;;20.90
19948;BMP180;10135;50.702;7.276;2023-05-07T07:17:28;99490.00;;;20.90
19948;BMP180;10135;50.702;7.276;2023-05-07T07:19:29;99481.00;;;20.90
19948;BMP180;10135;50.702;7.276;2023-05-07T07:21:29;99488.00;;;20.90
19948;BMP180;10135;50.702;7.276;2023-05-07T07:23:30;99491.00;;;20.90
19948;BMP180;10135;50.702;7.276;2023-05-07T07:25:31;99488.00;;;20.80
19948;BMP180;10135;50.702;7.276;2023-05-07T07:27:32;99493.00;;;20.80
19948;BMP180;10135;50.702;7.276;2023-05-07T07:29:33;99481.00;;;20.80
19948;BMP180;10135;50.702;7.276;2023-05-07T07:31:33;99489.00;;;20.80
19948;BMP180;10135;50.702;7.276;2023-05-07T07:33:34;99483.00;;;20.80
19948;BMP180;10135;50.702;7.276;2023-05-07T07:35:35;99496.00;;;20.80
19948;BMP180;10135;50.702;7.276;2023-05-07T07:37:36;99492.00;;;20.80
19948;BMP180;10135;50.702;7.276;2023-05-07T07:39:37;99492.00;;;20.90
19948;BMP180;10135;50.702;7.276;2023-05-07T07:41:41;99490.00;;;20.90
19948;BMP180;10135;50.702;7.276;2023-05-07T07:43:42;99498.00;;;20.90
19948;BMP180;10135;50.702;7.276;2023-05-07T07:45:42;99497.00;;;20.90
19948;BMP180;10135;50.702;7.276;2023-05-07T07:47:43;99495.00;;;21.00
19948;BMP180;10135;50.702;7.276;2023-05-07T07:49:44;99495.00;;;21.00
19948;BMP180;10135;50.702;7.276;2023-05-07T07:51:45;99496.00;;;21.00
19948;BMP180;10135;50.702;7.276;2023-05-07T07:53:45;99492.00;;;21.10
19948;BMP180;10135;50.702;7.276;2023-05-07T07:55:46;99496.00;;;21.10
19948;BMP180;10135;50.702;7.276;2023-05-07T07:57:47;99491.00;;;21.20
19948;BMP180;10135;50.702;7.276;2023-05-07T07:59:47;99503.00;;;21.20
19948;BMP180;10135;50.702;7.276;2023-05-07T08:01:48;99504.00;;;21.20
19948;BMP180;10135;50.702;7.276;2023-05-07T08:03:50;99507.00;;;21.30
19948;BMP180;10135;50.702;7.276;2023-05-07T08:05:51;99507.00;;;21.40
19948;BMP180;10135;50.702;7.276;2023-05-07T08:07:51;99505.00;;;21.40
19948;BMP180;10135;50.702;7.276;2023-05-07T08:09:53;99503.00;;;21.50
19948;BMP180;10135;50.702;7.276;2023-05-07T08:11:54;99503.00;;;21.50
19948;BMP180;10135;50.702;7.276;2023-05-07T08:13:55;99509.00;;;21.60
19948;BMP180;10135;50.702;7.276;2023-05-07T08:15:56;99509.00;;;21.70
19948;BMP180;10135;50.702;7.276;2023-05-07T08:17:58;99513.00;;;21.80
19948;BMP180;10135;50.702;7.276;2023-05-07T08:20:00;99508.00;;;21.90
19948;BMP180;10135;50.702;7.276;2023-05-07T08:22:05;99509.00;;;22.00
19948;BMP180;10135;50.702;7.276;2023-05-07T08:24:06;99507.00;;;22.10
19948;BMP180;10135;50.702;7.276;2023-05-07T08:26:08;99504.00;;;22.20
19948;BMP180;10135;50.702;7.276;2023-05-07T08:28:09;99512.00;;;22.30
19948;BMP180;10135;50.702;7.276;2023-05-07T08:30:10;99502.00;;;22.40
19948;BMP180;10135;50.702;7.276;2023-05-07T08:32:11;99505.00;;;22.50
19948;BMP180;10135;50.702;7.276;2023-05-07T08:34:11;99512.00;;;22.60
19948;BMP180;10135;50.702;7.276;2023-05-07T08:36:12;99510.00;;;22.70
19948;BMP180;10135;50.702;7.276;2023-05-07T08:38:12;99514.00;;;22.80
19948;BMP180;10135;50.702;7.276;2023-05-07T08:40:13;99515.00;;;23.00
19948;BMP180;10135;50.702;7.276;2023-05-07T08:42:17;99513.00;;;23.10
19948;BMP180;10135;50.702;7.276;2023-05-07T08:44:22;99511.00;;;23.20
19948;BMP180;10135;50.702;7.276;2023-05-07T08:46:26;99506.00;;;23.30
19948;BMP180;10135;50.702;7.276;2023-05-07T08:48:32;99507.00;;;23.40
19948;BMP180;10135;50.702;7.276;2023-05-07T08:50:36;99514.00;;;23.50
19948;BMP180;10135;50.702;7.276;2023-05-07T08:52:37;99511.00;;;23.50
19948;BMP180;10135;50.702;7.276;2023-05-07T08:54:38;99505.00;;;23.60
19948;BMP180;10135;50.702;7.276;2023-05-07T08:56:39;99508.00;;;23.60
19948;BMP180;10135;50.702;7.276;2023-05-07T08:58:40;99510.00;;;23.70
19948;BMP180;10135;50.702;7.276;2023-05-07T09:00:42;99513.00;;;23.70
19948;BMP180;10135;50.702;7.276;2023-05-07T09:02:42;99508.00;;;23.70
19948;BMP180;10135;50.702;7.276;2023-05-07T09:04:43;99514.00;;;23.70
19948;BMP180;10135;50.702;7.276;2023-05-07T09:06:44;99513.00;;;23.70
19948;BMP180;10135;50.702;7.276;2023-05-07T09:08:54;99510.00;;;23.70
19948;BMP180;10135;50.702;7.276;2023-05-07T09:10:55;99509.00;;;23.70
19948;BMP180;10135;50.702;7.276;2023-05-07T09:12:55;99513.00;;;23.80
19948;BMP180;10135;50.702;7.276;2023-05-07T09:14:56;99503.00;;;23.80
19948;BMP180;10135;50.702;7.276;2023-05-07T09:16:57;99504.00;;;23.90
19948;BMP180;10135;50.702;7.276;2023-05-07T09:18:59;99497.00;;;23.90
19948;BMP180;10135;50.702;7.276;2023-05-07T09:21:01;99506.00;;;24.00
19948;BMP180;10135;50.702;7.276;2023-05-07T09:23:01;99506.00;;;24.00
19948;BMP180;10135;50.702;7.276;2023-05-07T09:25:02;99499.00;;;24.10
19948;BMP180;10135;50.702;7.276;2023-05-07T09:27:04;99506.00;;;24.20
19948;BMP180;10135;50.702;7.276;2023-05-07T09:29:07;99498.00;;;24.20
19948;BMP180;10135;50.702;7.276;2023-05-07T09:31:10;99500.00;;;24.30
19948;BMP180;10135;50.702;7.276;2023-05-07T09:33:10;99489.00;;;24.30
19948;BMP180;10135;50.702;7.276;2023-05-07T09:35:16;99494.00;;;24.30
19948;BMP180;10135;50.702;7.276;2023-05-07T09:37:22;99504.00;;;24.40
19948;BMP180;10135;50.702;7.276;2023-05-07T09:39:23;99503.00;;;24.50
19948;BMP180;10135;50.702;7.276;2023-05-07T09:41:25;99500.00;;;24.50
19948;BMP180;10135;50.702;7.276;2023-05-07T09:43:26;99498.00;;;24.60
19948;BMP180;10135;50.702;7.276;2023-05-07T09:45:32;99503.00;;;24.60
19948;BMP180;10135;50.702;7.276;2023-05-07T09:47:39;99509.00;;;24.70
19948;BMP180;10135;50.702;7.276;2023-05-07T09:49:47;99496.00;;;24.70
19948;BMP180;10135;50.702;7.276;2023-05-07T09:51:51;99499.00;;;24.80
19948;BMP180;10135;50.702;7.276;2023-05-07T09:53:53;99503.00;;;24.80
19948;BMP180;10135;50.702;7.276;2023-05-07T09:55:54;99495.00;;;24.80
19948;BMP180;10135;50.702;7.276;2023-05-07T09:57:58;99501.00;;;24.90
19948;BMP180;10135;50.702;7.276;2023-05-07T10:00:02;99499.00;;;24.90
19948;BMP180;10135;50.702;7.276;2023-05-07T10:02:05;99495.00;;;25.00
19948;BMP180;10135;50.702;7.276;2023-05-07T10:04:06;99503.00;;;25.00
19948;BMP180;10135;50.702;7.276;2023-05-07T10:06:10;99501.00;;;25.10
19948;BMP180;10135;50.702;7.276;2023-05-07T10:08:11;99489.00;;;25.10
19948;BMP180;10135;50.702;7.276;2023-05-07T10:10:12;99491.00;;;25.20
19948;BMP180;10135;50.702;7.276;2023-05-07T10:12:13;99492.00;;;25.30
19948;BMP180;10135;50.702;7.276;2023-05-07T10:14:14;99491.00;;;25.40
19948;BMP180;10135;50.702;7.276;2023-05-07T10:16:16;99493.00;;;25.40
19948;BMP180;10135;50.702;7.276;2023-05-07T10:18:19;99492.00;;;25.50
19948;BMP180;10135;50.702;7.276;2023-05-07T10:20:23;99486.00;;;25.60
19948;BMP180;10135;50.702;7.276;2023-05-07T10:22:25;99490.00;;;25.70
19948;BMP180;10135;50.702;7.276;2023-05-07T10:24:32;99488.00;;;25.70
19948;BMP180;10135;50.702;7.276;2023-05-07T10:26:35;99487.00;;;25.80
19948;BMP180;10135;50.702;7.276;2023-05-07T10:28:44;99489.00;;;25.70
19948;BMP180;10135;50.702;7.276;2023-05-07T10:33:10;99489.00;;;25.70
19948;BMP180;10135;50.702;7.276;2023-05-07T10:35:24;99485.00;;;25.80
19948;BMP180;10135;50.702;7.276;2023-05-07T10:37:26;99488.00;;;25.80
19948;BMP180;10135;50.702;7.276;2023-05-07T10:39:27;99490.00;;;25.80
19948;BMP180;10135;50.702;7.276;2023-05-07T10:41:28;99491.00;;;25.90
19948;BMP180;10135;50.702;7.276;2023-05-07T10:43:40;99489.00;;;25.90
19948;BMP180;10135;50.702;7.276;2023-05-07T10:45:42;99501.00;;;26.00
19948;BMP180;10135;50.702;7.276;2023-05-07T10:48:15;99496.00;;;26.00
19948;BMP180;10135;50.702;7.276;2023-05-07T10:52:20;99492.00;;;26.10
19948;BMP180;10135;50.702;7.276;2023-05-07T10:54:22;99489.00;;;26.10
19948;BMP180;10135;50.702;7.276;2023-05-07T10:56:25;99483.00;;;26.20
19948;BMP180;10135;50.702;7.276;2023-05-07T10:58:28;99474.00;;;26.20
19948;BMP180;10135;50.702;7.276;2023-05-07T11:05:21;99477.00;;;26.20
19948;BMP180;10135;50.702;7.276;2023-05-07T11:07:27;99478.00;;;26.30
19948;BMP180;10135;50.702;7.276;2023-05-07T11:11:52;99469.00;;;26.30
19948;BMP180;10135;50.702;7.276;2023-05-07T11:13:52;99471.00;;;26.30
19948;BMP180;10135;50.702;7.276;2023-05-07T11:15:53;99469.00;;;26.30
19948;BMP180;10135;50.702;7.276;2023-05-07T11:17:59;99462.00;;;26.30
19948;BMP180;10135;50.702;7.276;2023-05-07T11:20:02;99470.00;;;26.30
19948;BMP180;10135;50.702;7.276;2023-05-07T11:22:03;99465.00;;;26.40
19948;BMP180;10135;50.702;7.276;2023-05-07T11:24:06;99463.00;;;26.40
19948;BMP180;10135;50.702;7.276;2023-05-07T11:26:08;99471.00;;;26.40
19948;BMP180;10135;50.702;7.276;2023-05-07T11:28:10;99469.00;;;26.40
19948;BMP180;10135;50.702;7.276;2023-05-07T11:30:17;99468.00;;;26.40
19948;BMP180;10135;50.702;7.276;2023-05-07T11:32:29;99463.00;;;26.30
19948;BMP180;10135;50.702;7.276;2023-05-07T11:34:31;99468.00;;;26.30
19948;BMP180;10135;50.702;7.276;2023-05-07T11:36:33;99466.00;;;26.30
19948;BMP180;10135;50.702;7.276;2023-05-07T11:38:37;99463.00;;;26.20
19948;BMP180;10135;50.702;7.276;2023-05-07T11:40:59;99468.00;;;26.10
19948;BMP180;10135;50.702;7.276;2023-05-07T11:43:11;99472.00;;;26.10
19948;BMP180;10135;50.702;7.276;2023-05-07T11:45:23;99467.00;;;26.00
19948;BMP180;10135;50.702;7.276;2023-05-07T11:47:24;99467.00;;;25.90
19948;BMP180;10135;50.702;7.276;2023-05-07T11:49:28;99475.00;;;25.80
19948;BMP180;10135;50.702;7.276;2023-05-07T11:51:30;99469.00;;;25.70
19948;BMP180;10135;50.702;7.276;2023-05-07T11:53:40;99470.00;;;25.60
19948;BMP180;10135;50.702;7.276;2023-05-07T11:55:41;99468.00;;;25.50
19948;BMP180;10135;50.702;7.276;2023-05-07T11:57:42;99466.00;;;25.30
19948;BMP180;10135;50.702;7.276;2023-05-07T11:59:43;99466.00;;;25.20
19948;BMP180;10135;50.702;7.276;2023-05-07T12:01:50;99468.00;;;25.10
19948;BMP180;10135;50.702;7.276;2023-05-07T12:03:50;99476.00;;;24.90
19948;BMP180;10135;50.702;7.276;2023-05-07T12:05:51;99479.00;;;24.90
19948;BMP180;10135;50.702;7.276;2023-05-07T12:07:57;99486.00;;;24.70
19948;BMP180;10135;50.702;7.276;2023-05-07T12:09:58;99489.00;;;24.70
19948;BMP180;10135;50.702;7.276;2023-05-07T12:12:04;99478.00;;;24.50
19948;BMP180;10135;50.702;7.276;2023-05-07T12:14:05;99481.00;;;24.40
19948;BMP180;10135;50.702;7.276;2023-05-07T12:16:06;99481.00;;;24.30
19948;BMP180;10135;50.702;7.276;2023-05-07T12:18:08;99484.00;;;24.10
19948;BMP180;10135;50.702;7.276;2023-05-07T12:20:10;99490.00;;;24.00
19948;BMP180;10135;50.702;7.276;2023-05-07T12:22:11;99480.00;;;23.90
19948;BMP180;10135;50.702;7.276;2023-05-07T12:24:14;99485.00;;;23.80
19948;BMP180;10135;50.702;7.276;2023-05-07T12:26:15;99491.00;;;23.70
19948;BMP180;10135;50.702;7.276;2023-05-07T12:28:17;99489.00;;;23.60
19948;BMP180;10135;50.702;7.276;2023-05-07T12:30:18;99489.00;;;23.50
19948;BMP180;10135;50.702;7.276;2023-05-07T12:32:22;99489.00;;;23.40
19948;BMP180;10135;50.702;7.276;2023-05-07T12:34:22;99489.00;;;23.30
19948;BMP180;10135;50.702;7.276;2023-05-07T12:36:23;99492.00;;;23.30
19948;BMP180;10135;50.702;7.276;2023-05-07T12:38:25;99483.00;;;23.20
19948;BMP180;10135;50.702;7.276;2023-05-07T12:40:47;99481.00;;;23.10
19948;BMP180;10135;50.702;7.276;2023-05-07T12:42:53;99490.00;;;23.10
19948;BMP180;10135;50.702;7.276;2023-05-07T12:44:56;99490.00;;;23.10
19948;BMP180;10135;50.702;7.276;2023-05-07T12:46:58;99493.00;;;23.00
19948;BMP180;10135;50.702;7.276;2023-05-07T12:48:59;99492.00;;;23.00
19948;BMP180;10135;50.702;7.276;2023-05-07T12:51:01;99491.00;;;23.00
19948;BMP180;10135;50.702;7.276;2023-05-07T12:53:07;99499.00;;;22.90
19948;BMP180;10135;50.702;7.276;2023-05-07T12:55:15;99497.00;;;22.90
19948;BMP180;10135;50.702;7.276;2023-05-07T12:57:19;99496.00;;;22.90
19948;BMP180;10135;50.702;7.276;2023-05-07T12:59:35;99496.00;;;22.90
19948;BMP180;10135;50.702;7.276;2023-05-07T13:01:36;99498.00;;;22.90
19948;BMP180;10135;50.702;7.276;2023-05-07T13:03:38;99504.00;;;22.90
19948;BMP180;10135;50.702;7.276;2023-05-07T13:05:39;99500.00;;;23.00
19948;BMP180;10135;50.702;7.276;2023-05-07T13:07:40;99497.00;;;23.00
19948;BMP180;10135;50.702;7.276;2023-05-07T13:09:41;99498.00;;;23.00
19948;BMP180;10135;50.702;7.276;2023-05-07T13:11:42;99499.00;;;23.10
19948;BMP180;10135;50.702;7.276;2023-05-07T13:13:43;99494.00;;;23.10
19948;BMP180;10135;50.702;7.276;2023-05-07T13:15:43;99496.00;;;23.20
19948;BMP180;10135;50.702;7.276;2023-05-07T13:17:44;99496.00;;;23.20
19948;BMP180;10135;50.702;7.276;2023-05-07T13:19:45;99501.00;;;23.30
19948;BMP180;10135;50.702;7.276;2023-05-07T13:21:45;99498.00;;;23.30
19948;BMP180;10135;50.702;7.276;2023-05-07T13:23:46;99496.00;;;23.40
19948;BMP180;10135;50.702;7.276;2023-05-07T13:25:48;99492.00;;;23.40
19948;BMP180;10135;50.702;7.276;2023-05-07T13:27:48;99490.00;;;23.50
19948;BMP180;10135;50.702;7.276;2023-05-07T13:29:49;99488.00;;;23.50
19948;BMP180;10135;50.702;7.276;2023-05-07T13:31:50;99481.00;;;23.60
19948;BMP180;10135;50.702;7.276;2023-05-07T13:33:50;99486.00;;;23.60
19948;BMP180;10135;50.702;7.276;2023-05-07T13:35:52;99477.00;;;23.60
19948;BMP180;10135;50.702;7.276;2023-05-07T13:37:53;99479.00;;;23.70
19948;BMP180;10135;50.702;7.276;2023-05-07T13:39:55;99474.00;;;23.70
19948;BMP180;10135;50.702;7.276;2023-05-07T13:41:55;99475.00;;;23.70
19948;BMP180;10135;50.702;7.276;2023-05-07T13:43:56;99471.00;;;23.70
19948;BMP180;10135;50.702;7.276;2023-05-07T13:45:57;99466.00;;;23.80
19948;BMP180;10135;50.702;7.276;2023-05-07T13:47:57;99467.00;;;23.80
19948;BMP180;10135;50.702;7.276;2023-05-07T13:49:58;99472.00;;;23.80
19948;BMP180;10135;50.702;7.276;2023-05-07T13:51:59;99468.00;;;23.80
19948;BMP180;10135;50.702;7.276;2023-05-07T13:53:59;99473.00;;;23.90
19948;BMP180;10135;50.702;7.276;2023-05-07T13:56:01;99474.00;;;23.90
19948;BMP180;10135;50.702;7.276;2023-05-07T13:58:02;99477.00;;;23.90
19948;BMP180;10135;50.702;7.276;2023-05-07T14:00:04;99481.00;;;23.90
19948;BMP180;10135;50.702;7.276;2023-05-07T14:02:06;99475.00;;;23.90
19948;BMP180;10135;50.702;7.276;2023-05-07T14:04:06;99474.00;;;23.90
19948;BMP180;10135;50.702;7.276;2023-05-07T14:06:08;99474.00;;;23.90
19948;BMP180;10135;50.702;7.276;2023-05-07T14:08:08;99468.00;;;23.90
19948;BMP180;10135;50.702;7.276;2023-05-07T14:10:10;99467.00;;;23.90
19948;BMP180;10135;50.702;7.276;2023-05-07T14:12:11;99467.00;;;23.90
19948;BMP180;10135;50.702;7.276;2023-05-07T14:14:12;99463.00;;;23.90
19948;BMP180;10135;50.702;7.276;2023-05-07T14:16:13;99461.00;;;23.90
19948;BMP180;10135;50.702;7.276;2023-05-07T14:18:14;99460.00;;;23.90
19948;BMP180;10135;50.702;7.276;2023-05-07T14:20:15;99462.00;;;23.90
19948;BMP180;10135;50.702;7.276;2023-05-07T14:22:16;99465.00;;;23.90
19948;BMP180;10135;50.702;7.276;2023-05-07T14:24:16;99470.00;;;23.90
19948;BMP180;10135;50.702;7.276;2023-05-07T14:26:17;99472.00;;;23.80
19948;BMP180;10135;50.702;7.276;2023-05-07T14:28:18;99475.00;;;23.90
19948;BMP180;10135;50.702;7.276;2023-05-07T14:30:19;99476.00;;;23.80
19948;BMP180;10135;50.702;7.276;2023-05-07T14:32:22;99483.00;;;23.80
19948;BMP180;10135;50.702;7.276;2023-05-07T14:34:22;99484.00;;;23.80
19948;BMP180;10135;50.702;7.276;2023-05-07T14:36:23;99491.00;;;23.80
19948;BMP180;10135;50.702;7.276;2023-05-07T14:38:26;99494.00;;;23.80
19948;BMP180;10135;50.702;7.276;2023-05-07T14:40:27;99500.00;;;23.80
19948;BMP180;10135;50.702;7.276;2023-05-07T14:42:27;99506.00;;;23.80
19948;BMP180;10135;50.702;7.276;2023-05-07T14:44:28;99506.00;;;23.70
19948;BMP180;10135;50.702;7.276;2023-05-07T14:46:29;99509.00;;;23.70
19948;BMP180;10135;50.702;7.276;2023-05-07T14:48:30;99503.00;;;23.70
19948;BMP180;10135;50.702;7.276;2023-05-07T14:50:33;99509.00;;;23.70
19948;BMP180;10135;50.702;7.276;2023-05-07T14:52:34;99499.00;;;23.60
19948;BMP180;10135;50.702;7.276;2023-05-07T14:54:34;99512.00;;;23.50
19948;BMP180;10135;50.702;7.276;2023-05-07T14:56:36;99507.00;;;23.50
19948;BMP180;10135;50.702;7.276;2023-05-07T14:58:36;99516.00;;;23.40
19948;BMP180;10135;50.702;7.276;2023-05-07T15:00:37;99518.00;;;23.30
19948;BMP180;10135;50.702;7.276;2023-05-07T15:02:38;99510.00;;;23.30
19948;BMP180;10135;50.702;7.276;2023-05-07T15:04:39;99514.00;;;23.20
19948;BMP180;10135;50.702;7.276;2023-05-07T15:06:46;99511.00;;;23.10
19948;BMP180;10135;50.702;7.276;2023-05-07T15:08:47;99516.00;;;23.00
19948;BMP180;10135;50.702;7.276;2023-05-07T15:10:48;99514.00;;;23.00
19948;BMP180;10135;50.702;7.276;2023-05-07T15:12:49;99514.00;;;22.90
19948;BMP180;10135;50.702;7.276;2023-05-07T15:14:50;99521.00;;;22.90
19948;BMP180;10135;50.702;7.276;2023-05-07T15:16:50;99521.00;;;22.80
19948;BMP180;10135;50.702;7.276;2023-05-07T15:18:51;99524.00;;;22.70
19948;BMP180;10135;50.702;7.276;2023-05-07T15:20:52;99539.00;;;22.70
19948;BMP180;10135;50.702;7.276;2023-05-07T15:22:52;99544.00;;;22.60
19948;BMP180;10135;50.702;7.276;2023-05-07T15:24:53;99542.00;;;22.50
19948;BMP180;10135;50.702;7.276;2023-05-07T15:26:55;99553.00;;;22.50
19948;BMP180;10135;50.702;7.276;2023-05-07T15:28:56;99569.00;;;22.40
19948;BMP180;10135;50.702;7.276;2023-05-07T15:30:57;99582.00;;;22.40
19948;BMP180;10135;50.702;7.276;2023-05-07T15:32:58;99584.00;;;22.30
19948;BMP180;10135;50.702;7.276;2023-05-07T15:34:58;99596.00;;;22.30
19948;BMP180;10135;50.702;7.276;2023-05-07T15:36:59;99598.00;;;22.20
19948;BMP180;10135;50.702;7.276;2023-05-07T15:39:00;99592.00;;;22.20
19948;BMP180;10135;50.702;7.276;2023-05-07T15:41:03;99606.00;;;22.10
19948;BMP180;10135;50.702;7.276;2023-05-07T15:43:03;99617.00;;;22.10
19948;BMP180;10135;50.702;7.276;2023-05-07T15:45:05;99609.00;;;22.10
19948;BMP180;10135;50.702;7.276;2023-05-07T15:47:06;99621.00;;;22.00
19948;BMP180;10135;50.702;7.276;2023-05-07T15:49:06;99620.00;;;22.00
19948;BMP180;10135;50.702;7.276;2023-05-07T15:51:07;99625.00;;;21.90
19948;BMP180;10135;50.702;7.276;2023-05-07T15:53:09;99621.00;;;21.90
19948;BMP180;10135;50.702;7.276;2023-05-07T15:55:10;99621.00;;;21.90
19948;BMP180;10135;50.702;7.276;2023-05-07T15:57:10;99625.00;;;21.90
19948;BMP180;10135;50.702;7.276;2023-05-07T15:59:11;99621.00;;;21.90
19948;BMP180;10135;50.702;7.276;2023-05-07T16:01:12;99628.00;;;21.90
19948;BMP180;10135;50.702;7.276;2023-05-07T16:03:13;99631.00;;;21.80
19948;BMP180;10135;50.702;7.276;2023-05-07T16:05:13;99630.00;;;21.80
19948;BMP180;10135;50.702;7.276;2023-05-07T16:07:14;99620.00;;;21.80
19948;BMP180;10135;50.702;7.276;2023-05-07T16:09:15;99623.00;;;21.70
19948;BMP180;10135;50.702;7.276;2023-05-07T16:11:16;99617.00;;;21.70
19948;BMP180;10135;50.702;7.276;2023-05-07T16:13:16;99619.00;;;21.70
19948;BMP180;10135;50.702;7.276;2023-05-07T16:15:18;99617.00;;;21.70
19948;BMP180;10135;50.702;7.276;2023-05-07T16:17:19;99625.00;;;21.60
19948;BMP180;10135;50.702;7.276;2023-05-07T16:19:19;99619.00;;;21.60
19948;BMP180;10135;50.702;7.276;2023-05-07T16:21:20;99623.00;;;21.60
19948;BMP180;10135;50.702;7.276;2023-05-07T16:23:21;99629.00;;;21.60
19948;BMP180;10135;50.702;7.276;2023-05-07T16:25:22;99627.00;;;21.50
19948;BMP180;10135;50.702;7.276;2023-05-07T16:27:22;99632.00;;;21.50
19948;BMP180;10135;50.702;7.276;2023-05-07T16:29:23;99635.00;;;21.50
19948;BMP180;10135;50.702;7.276;2023-05-07T16:31:24;99632.00;;;21.50
19948;BMP180;10135;50.702;7.276;2023-05-07T16:33:25;99632.00;;;21.50
19948;BMP180;10135;50.702;7.276;2023-05-07T16:35:26;99634.00;;;21.40
19948;BMP180;10135;50.702;7.276;2023-05-07T16:37:26;99628.00;;;21.40
19948;BMP180;10135;50.702;7.276;2023-05-07T16:39:27;99628.00;;;21.40
19948;BMP180;10135;50.702;7.276;2023-05-07T16:41:27;99624.00;;;21.40
19948;BMP180;10135;50.702;7.276;2023-05-07T16:43:28;99624.00;;;21.40
19948;BMP180;10135;50.702;7.276;2023-05-07T16:45:29;99622.00;;;21.40
19948;BMP180;10135;50.702;7.276;2023-05-07T16:47:30;99619.00;;;21.40
19948;BMP180;10135;50.702;7.276;2023-05-07T16:49:31;99622.00;;;21.40
19948;BMP180;10135;50.702;7.276;2023-05-07T16:51:33;99623.00;;;21.40
19948;BMP180;10135;50.702;7.276;2023-05-07T16:53:34;99627.00;;;21.40
19948;BMP180;10135;50.702;7.276;2023-05-07T16:55:36;99620.00;;;21.30
19948;BMP180;10135;50.702;7.276;2023-05-07T16:57:38;99629.00;;;21.30
19948;BMP180;10135;50.702;7.276;2023-05-07T16:59:39;99627.00;;;21.30
19948;BMP180;10135;50.702;7.276;2023-05-07T17:01:39;99630.00;;;21.30
19948;BMP180;10135;50.702;7.276;2023-05-07T17:03:42;99631.00;;;21.30
19948;BMP180;10135;50.702;7.276;2023-05-07T17:05:42;99629.00;;;21.30
19948;BMP180;10135;50.702;7.276;2023-05-07T17:07:43;99626.00;;;21.30
19948;BMP180;10135;50.702;7.276;2023-05-07T17:09:43;99630.00;;;21.30
19948;BMP180;10135;50.702;7.276;2023-05-07T17:11:44;99622.00;;;21.20
19948;BMP180;10135;50.702;7.276;2023-05-07T17:13:45;99626.00;;;21.20
19948;BMP180;10135;50.702;7.276;2023-05-07T17:15:45;99634.00;;;21.20
19948;BMP180;10135;50.702;7.276;2023-05-07T17:17:47;99632.00;;;21.20
19948;BMP180;10135;50.702;7.276;2023-05-07T17:19:47;99636.00;;;21.20
19948;BMP180;10135;50.702;7.276;2023-05-07T17:21:48;99633.00;;;21.20
19948;BMP180;10135;50.702;7.276;2023-05-07T17:23:49;99638.00;;;21.20